Rowley Island, N. W. T.

CWRX · 加拿大

METAR CWRX · Rowley Island, N. W. T.

26 二月 06:00 LT
11m
使用的METAR站距离机场218 NM。
罗盘
风向 的 风向 的 风向 到 风向 170°
风: 4 kt, 2 beaufort

添加一条跑道以查看侧风和逆风信息。

添置 跑道
0 ft 1.000 2.000 3.000 4.000 5.000
没有云
METAR CYIO 261100Z AUTO 17004KT 130V200 9SM CLR M30/M33 A2938 RMK SLP963

METAR Rowley Island, N. W. T. - CWRX

该字段位于加拿大中。 该机场位于纬度69,06667和经度-79,06667。 本场的ICAO机场代码为CWRX。 机场在Edmonton FIR中。

该航空气象观测是针对Pond Inlet Airport在2024年2月26日 05:00, 当地时间进行的。

机场观察

风向为170°,速度为4 kt。 风向在130°和200°之间变化。

可见度为9 mi。

有没有云。 没有观察到天花板。

温度为-30 °C,阵风为-41 °C。 露点为-33 °C,相对湿度为75%。 海平面上的气压为29,38 inHg (QNH)。

白天

今天,太阳从07:53升起,在17:05降落。 这适用于Rowley Island, N. W. T.,世界夏令时可能有所不同。 当地时间与世界标准时间之间的时差为-5 小时。 当前,没有夏令时有效。

公司介绍

我们没有关于这个机场的公司信息。

体会

到Vliegles.nl去找飞行课程,跳伞和其他飞行体验。 浏览页面,了解Rowley Island, N. W. T.附近所有可用的活动。 你也可以使用搜索功能来寻找你所在地附近的特定飞行课程、跳伞或其他飞行体验。

乌云

- CLR 没有云

温度 & 天气

温度 -30 °C
露点 -33 °C
相对湿度 75%
风寒 -41 °C
Kp-index 2 (0-9)

评论

SLP963海平面压力为29,42 inHg (29,42 inHg)

白天

日出
08:09 (1:58)
中午
12:24
日落
16:40

小工具

你想在你的网站上有一个关于Rowley Island, N. W. T.的当前航空天气(METAR)的小部件吗?

显示HTML代码
?>